< Cyclone 199401 1994 Season Cyclone 199403 >
Cyclone 199402 (REWA)
General InformationDetailed Track InformationTrack Information on Google MapsList of All Images || ResourceGoogle EarthGE AnimationAtom FeedGeoJSON
Detalied Best Track Wind (Time Zone = UTC)
Year Month Day Hour Lat. Long. Wind (kt) Gust (kt) Direc. of Major Storm Axis Radius of Major Storm Axis (nm) Radius of Minor Storm Axis (nm) Direc. of Major Gale Axis Radius of Major Gale Axis (nm) Radius of Minor Gale Axis (nm) Image
1993 12 28 06 -9.4 165.5 25 -1 symmetric - - symmetric - - Image
1993 12 28 12 -9.7 165.0 25 -1 symmetric - - symmetric - - Image
1993 12 28 18 -9.9 163.5 35 -1 symmetric - - symmetric - - Image
1993 12 29 00 -9.9 162.5 41 -1 symmetric - - symmetric - - Image
1993 12 29 06 -9.5 161.9 41 -1 symmetric - - symmetric - - Image
1993 12 29 12 -10.1 160.5 41 -1 symmetric - - symmetric - - Image
1993 12 29 18 -10.7 159.0 45 -1 symmetric - - symmetric - - Image
1993 12 30 00 -11.1 157.5 51 -1 symmetric - - symmetric - - Image
1993 12 30 06 -11.4 155.8 60 -1 symmetric - - symmetric - - Image
1993 12 30 12 -11.4 155.1 60 -1 symmetric - - symmetric - - Image
1993 12 30 18 -11.5 154.5 60 -1 symmetric - - symmetric - - Image
1993 12 31 00 -12.1 153.6 60 -1 symmetric - - symmetric - - Image
1993 12 31 06 -12.2 153.1 64 -1 symmetric - - symmetric - - Image
1993 12 31 12 -12.5 153.7 64 -1 symmetric - - symmetric - - Image
1993 12 31 18 -12.9 153.8 64 -1 symmetric - - symmetric - - Image
1994 1 1 00 -13.4 153.0 64 -1 symmetric - - symmetric - - Image
1994 1 1 06 -13.9 153.0 64 -1 symmetric - - symmetric - - Image
1994 1 1 12 -14.5 152.9 64 -1 symmetric - - symmetric - - Image
1994 1 1 18 -14.9 153.0 64 -1 symmetric - - symmetric - - Image
1994 1 2 00 -15.4 153.5 64 -1 symmetric - - symmetric - - Image
1994 1 2 06 -15.9 153.6 82 -1 symmetric - - symmetric - - Image
1994 1 2 12 -16.8 153.9 89 -1 symmetric - - symmetric - - Image
1994 1 2 18 -17.7 154.1 95 -1 symmetric - - symmetric - - Image
1994 1 3 00 -18.6 154.2 95 -1 symmetric - - symmetric - - Image
1994 1 3 06 -19.4 154.6 89 -1 symmetric - - symmetric - - Image
1994 1 3 12 -19.9 155.0 89 -1 symmetric - - symmetric - - Image
1994 1 3 18 -20.6 156.2 89 -1 symmetric - - symmetric - - Image
1994 1 4 00 -21.2 157.5 84 -1 symmetric - - symmetric - - Image
1994 1 4 06 -21.6 158.9 84 -1 symmetric - - symmetric - - Image
1994 1 4 12 -21.7 160.5 82 -1 symmetric - - symmetric - - Image
1994 1 4 18 -21.7 162.0 76 -1 symmetric - - symmetric - - Image
1994 1 5 00 -21.9 163.0 70 -1 symmetric - - symmetric - - Image
1994 1 5 06 -21.9 164.2 64 -1 symmetric - - symmetric - - Image
1994 1 5 12 -21.9 165.1 54 -1 symmetric - - symmetric - - Image
1994 1 5 18 -21.6 166.4 49 -1 symmetric - - symmetric - - Image
1994 1 6 00 -21.4 166.6 49 -1 symmetric - - symmetric - - Image
1994 1 6 06 -21.3 167.0 47 -1 symmetric - - symmetric - - Image
1994 1 6 12 -21.2 167.4 47 -1 symmetric - - symmetric - - Image
1994 1 6 18 -21.0 167.7 47.1481 -1 symmetric - - symmetric - - Image
1994 1 7 00 -20.6 168.0 47.2963 -1 symmetric - - symmetric - - Image
1994 1 7 06 -20.3 168.2 47.4444 -1 symmetric - - symmetric - - Image
1994 1 7 12 -19.9 168.3 47.5926 -1 symmetric - - symmetric - - Image
1994 1 7 18 -19.5 168.2 47.7407 -1 symmetric - - symmetric - - Image
1994 1 8 00 -19.3 168.0 47.8889 -1 symmetric - - symmetric - - Image
1994 1 8 06 -18.9 167.4 48.037 -1 symmetric - - symmetric - - Image
1994 1 8 12 -18.5 166.6 48.1852 -1 symmetric - - symmetric - - Image
1994 1 8 18 -18.2 166.0 48.3333 -1 symmetric - - symmetric - - Image
1994 1 9 00 -16.9 165.0 48.4815 -1 symmetric - - symmetric - - Image
1994 1 9 06 -17.5 164.3 48.6296 -1 symmetric - - symmetric - - Image
1994 1 9 12 -16.9 163.4 48.7778 -1 symmetric - - symmetric - - Image
1994 1 9 18 -16.5 162.4 48.9259 -1 symmetric - - symmetric - - Image
1994 1 10 00 -15.9 161.0 49.0741 -1 symmetric - - symmetric - - Image
1994 1 10 06 -15.8 161.6 49.2222 -1 symmetric - - symmetric - - Image
1994 1 10 12 -15.4 160.1 49.3704 -1 symmetric - - symmetric - - Image
1994 1 10 18 -14.9 159.0 49.5185 -1 symmetric - - symmetric - - Image
1994 1 11 00 -14.9 157.5 49.6667 -1 symmetric - - symmetric - - Image
1994 1 11 06 -14.9 156.1 49.8148 -1 symmetric - - symmetric - - Image
1994 1 11 12 -14.3 154.6 49.963 -1 symmetric - - symmetric - - Image
1994 1 11 18 -13.4 153.8 50.1111 -1 symmetric - - symmetric - - Image
1994 1 12 00 -12.9 153.5 50.2593 -1 symmetric - - symmetric - - Image
1994 1 12 06 -12.3 153.4 50.4074 -1 symmetric - - symmetric - - Image
1994 1 12 12 -12.0 153.4 50.5556 -1 symmetric - - symmetric - - Image
1994 1 12 18 -11.7 153.4 50.7037 -1 symmetric - - symmetric - - Image
1994 1 13 00 -11.4 153.4 50.8519 -1 symmetric - - symmetric - - Image
1994 1 13 05 -11.3 153.2 51 -1 symmetric - - symmetric - - Image
1994 1 13 15 -11.1 153.9 51 -1 symmetric - - symmetric - - Image
1994 1 13 22 -12.3 154.6 51 -1 symmetric - - symmetric - - Image
1994 1 14 00 -11.9 154.4 51 -1 symmetric - - symmetric - - Image
1994 1 14 06 -12.0 154.5 54 -1 symmetric - - symmetric - - Image
1994 1 14 12 -12.1 154.7 60 -1 symmetric - - symmetric - - Image
1994 1 14 18 -12.3 154.8 60 -1 symmetric - - symmetric - - Image
1994 1 15 00 -12.5 155.1 64 -1 symmetric - - symmetric - - Image
1994 1 15 06 -12.9 155.6 64 -1 symmetric - - symmetric - - Image
1994 1 15 12 -13.8 155.9 91 -1 symmetric - - symmetric - - Image
1994 1 15 18 -14.7 156.3 91 -1 symmetric - - symmetric - - Image
1994 1 16 00 -15.6 156.8 91 -1 symmetric - - symmetric - - Image
1994 1 16 06 -16.3 157.3 95 -1 symmetric - - symmetric - - Image
1994 1 16 12 -17.1 157.6 111 -1 symmetric - - symmetric - - Image
1994 1 16 18 -17.8 157.9 95 -1 symmetric - - symmetric - - Image
1994 1 17 00 -18.4 157.6 95 -1 symmetric - - symmetric - - Image
1994 1 17 06 -18.9 157.0 95 -1 symmetric - - symmetric - - Image
1994 1 17 12 -19.8 155.6 82 -1 symmetric - - symmetric - - Image
1994 1 17 18 -20.3 154.4 64 -1 symmetric - - symmetric - - Image
1994 1 18 00 -20.6 153.3 70 -1 symmetric - - symmetric - - Image
1994 1 18 06 -20.8 152.5 70 -1 symmetric - - symmetric - - Image
1994 1 18 12 -20.8 152.0 70 -1 symmetric - - symmetric - - Image
1994 1 18 18 -20.8 151.8 70 -1 symmetric - - symmetric - - Image
1994 1 19 00 -21.0 151.6 60 -1 symmetric - - symmetric - - Image
1994 1 19 06 -21.9 152.0 60 -1 symmetric - - symmetric - - Image
1994 1 19 12 -22.5 152.1 60 -1 symmetric - - symmetric - - Image
1994 1 19 18 -22.8 152.1 54 -1 symmetric - - symmetric - - Image
1994 1 20 00 -23.5 152.7 51 -1 symmetric - - symmetric - - Image
1994 1 20 06 -24.1 153.5 54 -1 symmetric - - symmetric - - Image
1994 1 20 12 -24.5 154.4 51 -1 symmetric - - symmetric - - Image
1994 1 20 18 -25.1 155.1 47 -1 symmetric - - symmetric - - Image
1994 1 21 00 -26.2 155.7 47 -1 symmetric - - symmetric - - Image
1994 1 21 06 -26.9 157.0 47 -1 symmetric - - symmetric - - Image
< Cyclone 199401 1994 Season Cyclone 199403 >

Help